Time;durP1;ratioP1;P1;durP2;ratioP2;P2;SDS_P1;SDS_P2;PMS_P1;PMS_P2;Temp;Humidity;BMP_temperature;BMP_pressure;BME280_temperature;BME280_humidity;BME280_pressure;Samples;Min_cycle;Max_cycle;Signal;HPM_P1;HPM_P2
2023/09/07 00:01:04;;;;;;;23.13;20.38;;;;;;;19.97;100.00;101052.66;5130464;28;20034;-74
2023/09/07 00:03:29;;;;;;;21.85;19.13;;;;;;;20.34;100.00;101121.47;5130381;28;20513;-73
2023/09/07 00:05:55;;;;;;;23.65;19.50;;;;;;;20.34;100.00;101090.47;5132076;27;20035;-73
2023/09/07 00:08:20;;;;;;;25.55;20.23;;;;;;;20.04;100.00;101056.63;5131539;27;20397;-73
2023/09/07 00:10:45;;;;;;;26.58;20.67;;;;;;;19.66;100.00;101030.13;5134200;27;20034;-73
2023/09/07 00:13:11;;;;;;;24.35;19.33;;;;;;;20.23;100.00;101088.41;5133803;27;20054;-73
2023/09/07 00:15:38;;;;;;;22.63;19.00;;;;;;;20.11;100.00;101047.66;5137103;27;20510;-73
2023/09/07 00:18:03;;;;;;;20.25;17.63;;;;;;;20.26;100.00;101064.19;5156390;27;20027;-74
2023/09/07 00:20:29;;;;;;;21.25;18.85;;;;;;;20.10;100.00;101070.97;5137301;27;20504;-73
2023/09/07 00:22:54;;;;;;;22.70;19.90;;;;;;;20.24;100.00;101115.91;5137184;27;20031;-73
2023/09/07 00:25:20;;;;;;;25.88;19.38;;;;;;;20.22;100.00;101110.00;5155256;27;20031;-73
2023/09/07 00:27:46;;;;;;;20.42;18.27;;;;;;;20.28;100.00;101099.31;5137703;27;20027;-73
2023/09/07 00:30:12;;;;;;;23.40;18.48;;;;;;;20.25;100.00;101067.66;5169223;27;20030;-72
2023/09/07 00:32:38;;;;;;;22.02;18.27;;;;;;;20.08;100.00;101071.06;5164091;27;20416;-72
2023/09/07 00:35:05;;;;;;;25.60;20.13;;;;;;;20.12;100.00;101101.00;5155724;27;20087;-73
2023/09/07 00:37:30;;;;;;;25.42;19.73;;;;;;;19.77;100.00;101073.44;5155330;27;20492;-73
2023/09/07 00:39:56;;;;;;;25.65;20.15;;;;;;;20.15;100.00;101115.47;5155501;27;20033;-72
2023/09/07 00:42:21;;;;;;;22.90;19.83;;;;;;;19.83;100.00;101048.19;5155646;27;20030;-73
2023/09/07 00:44:48;;;;;;;25.42;18.73;;;;;;;20.11;100.00;101109.63;5155354;27;20400;-73
2023/09/07 00:47:14;;;;;;;23.58;18.20;;;;;;;19.91;100.00;101054.72;5155482;27;20027;-72
2023/09/07 00:49:40;;;;;;;22.02;18.23;;;;;;;20.16;100.00;101106.84;5136811;27;20033;-72
2023/09/07 00:52:09;;;;;;;21.50;18.15;;;;;;;20.13;100.00;101107.81;5155831;27;20110;-73
2023/09/07 00:54:36;;;;;;;23.73;17.98;;;;;;;20.19;100.00;101106.69;5136746;27;20035;-73
2023/09/07 00:57:02;;;;;;;21.50;17.23;;;;;;;20.17;100.00;101087.81;5155895;27;20033;-73
2023/09/07 00:59:27;;;;;;;24.73;18.00;;;;;;;19.74;100.00;101051.22;5136701;27;20030;-73
2023/09/07 01:01:53;;;;;;;19.95;17.85;;;;;;;19.69;100.00;101044.59;5155300;27;20027;-72
2023/09/07 01:04:18;;;;;;;20.10;17.20;;;;;;;19.95;100.00;101085.47;5155253;27;20545;-73
2023/09/07 01:06:50;;;;;;;20.85;16.95;;;;;;;19.67;100.00;101036.09;5155048;27;20045;-72
2023/09/07 01:09:23;;;;;;;20.23;16.10;;;;;;;20.01;100.00;101085.16;5156711;27;20613;-72
2023/09/07 01:11:48;;;;;;;21.17;17.00;;;;;;;20.05;100.00;101084.09;5158889;27;20033;-73
2023/09/07 01:14:14;;;;;;;19.65;16.92;;;;;;;20.08;100.00;101103.78;5155062;27;20034;-72
2023/09/07 01:16:40;;;;;;;19.83;17.02;;;;;;;20.00;100.00;101075.78;5154896;27;20488;-73
2023/09/07 01:19:07;;;;;;;22.75;16.95;;;;;;;19.76;100.00;101046.81;5154802;27;20030;-73
2023/09/07 01:21:37;;;;;;;17.92;15.52;;;;;;;19.88;100.00;101033.31;5154453;27;20023;-72
2023/09/07 01:24:15;;;;;;;20.33;15.50;;;;;;;19.94;100.00;101039.06;5136346;27;20076;-73
2023/09/07 01:26:40;;;;;;;17.90;15.35;;;;;;;20.02;100.00;101081.69;5150091;27;20039;-72
2023/09/07 01:29:06;;;;;;;19.23;14.77;;;;;;;20.08;100.00;101060.72;5135985;27;20033;-73
2023/09/07 01:31:39;;;;;;;19.95;16.40;;;;;;;19.88;100.00;101091.84;5155013;27;20034;-72
2023/09/07 01:34:06;;;;;;;18.30;15.48;;;;;;;19.80;100.00;101084.47;5154385;27;20112;-72
2023/09/07 01:36:32;;;;;;;16.75;14.95;;;;;;;19.64;100.00;101036.25;5136126;27;20027;-72
2023/09/07 01:38:58;;;;;;;16.83;14.30;;;;;;;20.05;100.00;101091.00;5136016;27;20037;-71
2023/09/07 01:41:23;;;;;;;18.00;14.07;;;;;;;20.06;100.00;101096.13;5135640;27;20031;-72
2023/09/07 01:43:48;;;;;;;16.30;13.50;;;;;;;19.93;100.00;101063.25;5153917;27;20030;-73
2023/09/07 01:46:14;;;;;;;15.40;13.75;;;;;;;20.06;100.00;101090.97;5136100;27;20044;-72
2023/09/07 01:48:39;;;;;;;14.43;12.93;;;;;;;19.65;100.00;101081.78;5135453;27;20027;-72
2023/09/07 01:51:04;;;;;;;16.10;12.98;;;;;;;19.72;100.00;101075.44;5154669;27;20481;-72
2023/09/07 01:53:30;;;;;;;14.65;13.15;;;;;;;19.72;100.00;101071.13;5154614;27;20027;-73
2023/09/07 01:55:56;;;;;;;15.85;13.65;;;;;;;19.54;100.00;101060.81;5135818;27;20031;-72
2023/09/07 01:58:23;;;;;;;15.27;12.38;;;;;;;18.95;100.00;100997.38;5154408;27;20033;-73
2023/09/07 02:00:49;;;;;;;14.20;12.02;;;;;;;19.55;100.00;101090.88;5154302;27;20031;-74
2023/09/07 02:03:14;;;;;;;13.55;12.05;;;;;;;19.94;100.00;101080.38;5153646;27;20091;-73
2023/09/07 02:05:40;;;;;;;14.38;10.65;;;;;;;19.27;100.00;101055.19;5135823;27;20473;-74
2023/09/07 02:08:06;;;;;;;12.43;9.60;;;;;;;19.29;100.00;101063.69;5135670;27;20031;-73
2023/09/07 02:10:31;;;;;;;11.23;10.13;;;;;;;19.73;100.00;101108.91;5134872;27;20023;-72
2023/09/07 02:12:57;;;;;;;11.18;9.80;;;;;;;19.56;100.00;101101.13;5153304;27;20023;-74
2023/09/07 02:15:23;;;;;;;12.07;10.15;;;;;;;19.26;100.00;101042.34;5154215;27;20030;-72
2023/09/07 02:17:48;;;;;;;13.15;10.32;;;;;;;19.13;100.00;101049.84;5153522;27;20027;-72
2023/09/07 02:20:14;;;;;;;11.27;9.82;;;;;;;19.40;100.00;101051.16;5135207;27;20072;-73
2023/09/07 02:22:39;;;;;;;11.82;9.73;;;;;;;19.39;100.00;101066.72;5131070;27;20026;-72
2023/09/07 02:25:06;;;;;;;10.88;9.70;;;;;;;19.34;100.00;101115.06;5132298;27;20035;-73
2023/09/07 02:27:35;;;;;;;11.25;9.60;;;;;;;19.42;100.00;101089.78;5114424;27;20035;-73
2023/09/07 02:30:02;;;;;;;11.90;9.45;;;;;;;18.92;100.00;101079.13;5109435;27;20115;-72
2023/09/07 02:32:28;;;;;;;11.50;10.20;;;;;;;19.41;100.00;101113.91;5131630;27;20037;-73
2023/09/07 02:34:53;;;;;;;11.90;9.85;;;;;;;18.96;100.00;101089.25;5113933;27;20023;-73
2023/09/07 02:37:18;;;;;;;12.90;9.60;;;;;;;19.13;100.00;101110.88;5113908;27;20429;-73
2023/09/07 02:39:44;;;;;;;10.50;9.30;;;;;;;19.40;100.00;101113.06;5125589;27;20031;-73
2023/09/07 02:42:09;;;;;;;11.02;9.93;;;;;;;19.21;100.00;101116.53;5121355;27;20103;-73
2023/09/07 02:44:35;;;;;;;10.82;9.70;;;;;;;19.05;100.00;101095.75;5133030;27;20034;-73
2023/09/07 02:47:01;;;;;;;10.73;9.65;;;;;;;19.19;100.00;101089.97;5114378;27;20469;-72
2023/09/07 02:49:26;;;;;;;10.88;9.68;;;;;;;18.99;100.00;101067.66;5132206;27;20117;-73
2023/09/07 02:51:52;;;;;;;14.93;10.52;;;;;;;18.92;100.00;101121.22;5132304;27;20091;-73
2023/09/07 02:54:17;;;;;;;11.50;10.30;;;;;;;19.06;100.00;101110.28;5132494;27;20026;-73
2023/09/07 02:56:42;;;;;;;12.43;10.45;;;;;;;18.66;100.00;101057.09;5132031;27;20110;-73
2023/09/07 02:59:08;;;;;;;15.02;10.75;;;;;;;19.27;100.00;101124.81;5113969;27;20023;-73
2023/09/07 03:01:34;;;;;;;13.80;11.25;;;;;;;18.80;100.00;101115.75;5131835;27;20038;-73
2023/09/07 03:03:59;;;;;;;13.27;10.85;;;;;;;18.71;100.00;101077.53;5132372;27;20133;-73
2023/09/07 03:06:25;;;;;;;11.38;10.05;;;;;;;18.93;100.00;101065.38;5132637;27;20031;-73
2023/09/07 03:08:52;;;;;;;12.13;10.50;;;;;;;18.51;100.00;101060.34;5114203;27;20477;-73
2023/09/07 03:11:17;;;;;;;14.85;10.25;;;;;;;18.90;100.00;101083.53;5113660;27;20035;-73
2023/09/07 03:13:43;;;;;;;9.65;8.73;;;;;;;19.04;100.00;101117.25;5114589;27;20020;-72
2023/09/07 03:16:09;;;;;;;10.73;8.88;;;;;;;18.78;100.00;101058.28;5135888;27;20062;-72
2023/09/07 03:18:34;;;;;;;10.00;8.85;;;;;;;19.09;100.00;101099.03;5132701;27;20106;-72
2023/09/07 03:21:02;;;;;;;9.80;8.63;;;;;;;19.02;100.00;101099.28;5132349;27;20083;-72
2023/09/07 03:23:29;;;;;;;10.40;8.52;;;;;;;18.84;100.00;101053.72;5145698;27;20027;-72
2023/09/07 03:25:54;;;;;;;10.10;8.40;;;;;;;18.96;100.00;101073.78;5132297;27;20073;-73
2023/09/07 03:28:19;;;;;;;11.40;8.07;;;;;;;18.92;100.00;101107.50;5108479;28;20111;-70
2023/09/07 03:30:45;;;;;;;11.75;8.00;;;;;;;19.14;100.00;101121.09;5117165;27;20039;-74
2023/09/07 03:33:10;;;;;;;8.70;7.80;;;;;;;19.02;100.00;101065.78;5118136;28;20038;-75
2023/09/07 03:35:37;;;;;;;9.48;8.50;;;;;;;19.01;100.00;101071.81;5132118;28;20027;-74
2023/09/07 03:38:03;;;;;;;8.88;7.78;;;;;;;19.77;100.00;101164.63;5114231;28;20023;-72
2023/09/07 03:40:28;;;;;;;9.80;7.65;;;;;;;19.39;100.00;101160.38;5129970;28;20405;-74
2023/09/07 03:42:54;;;;;;;9.48;7.95;;;;;;;19.15;100.00;101114.22;5131608;28;20042;-75
2023/09/07 03:45:19;;;;;;;10.77;9.35;;;;;;;19.00;100.00;101193.91;5132640;28;20048;-74
2023/09/07 03:47:45;;;;;;;17.55;12.77;;;;;;;18.43;100.00;101129.38;5137015;28;20035;-73
2023/09/07 03:50:10;;;;;;;18.20;13.07;;;;;;;18.67;100.00;101173.88;5150531;27;20035;-75
2023/09/07 03:52:36;;;;;;;18.63;14.68;;;;;;;18.23;100.00;101105.31;5123343;27;20436;-74
2023/09/07 03:55:02;;;;;;;21.30;15.38;;;;;;;18.48;100.00;101173.00;5136430;27;20035;-77
2023/09/07 03:57:27;;;;;;;23.08;15.88;;;;;;;18.08;100.00;101091.34;5118652;27;20118;-74
2023/09/07 03:59:55;;;;;;;20.50;14.95;;;;;;;18.10;100.00;101085.22;5136091;27;20070;-75
2023/09/07 04:02:21;;;;;;;18.77;15.30;;;;;;;18.48;100.00;101162.69;5118203;27;20038;-75
2023/09/07 04:04:51;;;;;;;16.45;13.15;;;;;;;18.55;100.00;101090.22;5135697;27;20051;-77
2023/09/07 04:07:17;;;;;;;12.90;10.48;;;;;;;18.57;100.00;101098.72;5120910;27;20088;-76
2023/09/07 04:09:44;;;;;;;14.52;9.98;;;;;;;19.03;100.00;101151.69;5157087;27;20027;-73
2023/09/07 04:12:09;;;;;;;9.13;7.80;;;;;;;18.77;100.00;101096.13;5133186;27;20030;-74
2023/09/07 04:14:35;;;;;;;10.48;7.38;;;;;;;19.17;100.00;101167.41;5135567;27;20054;-74
2023/09/07 04:17:00;;;;;;;9.65;7.70;;;;;;;18.81;100.00;101107.97;5135834;27;20055;-73
2023/09/07 04:19:26;;;;;;;12.45;7.90;;;;;;;19.44;100.00;101173.94;5109068;28;20050;-72
2023/09/07 04:21:51;;;;;;;10.48;8.40;;;;;;;18.50;100.00;101087.00;5114222;28;20493;-74
2023/09/07 04:24:17;;;;;;;11.65;8.35;;;;;;;19.33;100.00;101188.22;5114728;28;20035;-76
2023/09/07 04:26:42;;;;;;;10.82;9.70;;;;;;;18.86;100.00;101180.78;5115461;28;20030;-76
2023/09/07 04:29:08;;;;;;;11.27;9.23;;;;;;;18.84;100.00;101125.88;5114475;28;20034;-76
2023/09/07 04:31:33;;;;;;;13.60;9.10;;;;;;;19.51;100.00;101200.31;5115200;28;20032;-75
2023/09/07 04:33:59;;;;;;;11.52;9.27;;;;;;;19.36;100.00;101137.31;5115170;28;20027;-72
2023/09/07 04:36:25;;;;;;;15.70;9.95;;;;;;;20.31;100.00;101205.09;5097145;28;20541;-75
2023/09/07 04:38:50;;;;;;;13.23;8.85;;;;;;;19.42;100.00;101222.19;5097034;28;20066;-76
2023/09/07 04:41:16;;;;;;;14.23;8.98;;;;;;;18.99;100.00;101160.47;5128571;27;20027;-74
2023/09/07 04:43:43;;;;;;;11.75;8.77;;;;;;;19.61;100.00;101183.50;5135384;27;20034;-76
2023/09/07 04:46:09;;;;;;;10.45;7.95;;;;;;;19.89;100.00;101238.94;5135424;27;20489;-76
2023/09/07 04:48:35;;;;;;;19.25;9.00;;;;;;;20.13;100.00;101247.28;5135446;27;20163;-75
2023/09/07 04:51:05;;;;;;;16.42;11.70;;;;;;;19.94;100.00;101269.72;5133627;27;20023;-74
2023/09/07 04:53:33;;;;;;;25.75;15.10;;;;;;;19.66;100.00;101223.66;5135286;27;20057;-75
2023/09/07 04:55:59;;;;;;;23.70;15.10;;;;;;;19.49;100.00;101204.69;5133746;27;20034;-73
2023/09/07 04:58:24;;;;;;;23.52;15.27;;;;;;;20.01;100.00;101281.41;5134920;27;20031;-74
2023/09/07 05:00:51;;;;;;;22.15;13.75;;;;;;;19.67;100.00;101209.84;5134780;27;20511;-73
2023/09/07 05:03:16;;;;;;;11.93;9.57;;;;;;;20.19;100.00;101272.00;5133417;27;20071;-74
2023/09/07 05:05:43;;;;;;;11.73;7.88;;;;;;;20.04;100.00;101252.03;5133332;27;20570;-72
2023/09/07 05:08:09;;;;;;;12.07;8.30;;;;;;;20.38;100.00;101276.22;5135013;27;20023;-74
2023/09/07 05:10:35;;;;;;;11.02;7.32;;;;;;;20.42;100.00;101266.63;5134852;27;20501;-74
2023/09/07 05:13:00;;;;;;;8.40;7.38;;;;;;;20.80;100.00;101272.50;5133048;27;20024;-72
2023/09/07 05:15:26;;;;;;;8.93;7.45;;;;;;;21.36;100.00;101281.69;5132795;27;20030;-74
2023/09/07 05:17:55;;;;;;;11.32;7.32;;;;;;;21.53;100.00;101271.28;5134120;27;20023;-73
2023/09/07 05:20:21;;;;;;;7.97;7.13;;;;;;;21.81;100.00;101288.00;5134149;27;20053;-72
2023/09/07 05:22:47;;;;;;;7.72;6.93;;;;;;;21.67;100.00;101270.56;5133984;27;20590;-74
2023/09/07 05:25:12;;;;;;;12.48;6.88;;;;;;;21.93;100.00;101359.84;5133469;27;20062;-75
2023/09/07 05:27:38;;;;;;;9.40;6.60;;;;;;;22.43;100.00;101607.72;5133791;27;20034;-78
2023/09/07 05:30:05;;;;;;;8.02;5.82;;;;;;;22.61;100.00;101784.91;5134408;27;20088;-77
2023/09/07 05:32:30;;;;;;;6.90;6.20;;;;;;;22.84;100.00;102202.34;5134310;27;20054;-77
2023/09/07 05:34:56;;;;;;;6.30;5.65;;;;;;;22.63;100.00;102617.47;5134060;27;20057;-76
2023/09/07 05:37:21;;;;;;;11.57;5.75;;;;;;;22.82;100.00;103835.81;5135188;27;20550;-78
2023/09/07 05:39:47;;;;;;;8.15;5.75;;;;;;;22.73;100.00;103895.66;5134904;27;20554;-78
2023/09/07 05:42:12;;;;;;;8.50;5.55;;;;;;;23.12;100.00;103920.97;5134735;27;20026;-78
2023/09/07 05:44:38;;;;;;;8.93;5.45;;;;;;;23.41;100.00;103962.94;5135000;27;20066;-78
2023/09/07 05:47:04;;;;;;;9.43;4.97;;;;;;;23.61;100.00;103971.19;5135037;27;20091;-77
2023/09/07 05:49:30;;;;;;;6.20;5.25;;;;;;;23.80;100.00;104105.22;5134643;27;20094;-77
2023/09/07 05:51:56;;;;;;;10.65;5.07;;;;;;;23.96;100.00;103799.75;5133275;27;20039;-76
2023/09/07 05:54:21;;;;;;;6.70;4.80;;;;;;;24.05;100.00;103725.88;5133062;27;20546;-76
2023/09/07 05:56:47;;;;;;;8.45;5.35;;;;;;;23.87;100.00;104189.16;5134499;27;20073;-77
2023/09/07 05:59:12;;;;;;;5.55;4.78;;;;;;;24.60;100.00;104027.38;5134607;27;20030;-77
2023/09/07 06:01:39;;;;;;;6.90;4.70;;;;;;;24.24;100.00;103640.44;5134710;27;20035;-77
2023/09/07 06:04:05;;;;;;;9.20;4.78;;;;;;;24.06;100.00;103077.41;5133333;27;20115;-76
2023/09/07 06:06:31;;;;;;;7.85;5.03;;;;;;;24.75;100.00;103046.25;5134005;27;20031;-75
2023/09/07 06:08:58;;;;;;;9.68;5.05;;;;;;;25.39;100.00;103096.72;5132723;27;20034;-76
2023/09/07 06:11:23;;;;;;;9.38;4.72;;;;;;;25.60;100.00;103012.44;5132674;27;20095;-76
2023/09/07 06:13:49;;;;;;;12.10;4.72;;;;;;;25.61;100.00;102789.09;5132617;27;20117;-75
2023/09/07 06:16:14;;;;;;;17.38;5.10;;;;;;;25.18;100.00;102646.84;5133697;27;20453;-76
2023/09/07 06:18:40;;;;;;;5.72;4.97;;;;;;;25.51;100.00;102628.84;5134054;27;20500;-76
2023/09/07 06:21:05;;;;;;;5.88;4.50;;;;;;;25.18;100.00;102505.31;5133053;27;20471;-75
2023/09/07 06:23:31;;;;;;;12.68;7.20;;;;;;;25.46;100.00;102480.50;5133636;27;20062;-76
2023/09/07 06:25:56;;;;;;;16.52;7.65;;;;;;;25.30;100.00;102401.38;5133278;27;20042;-75
2023/09/07 06:28:22;;;;;;;16.45;9.73;;;;;;;25.87;100.00;102405.38;5132861;27;20031;-75
2023/09/07 06:30:47;;;;;;;22.50;8.32;;;;;;;26.49;100.00;102482.94;5133487;27;20027;-75
2023/09/07 06:33:13;;;;;;;16.95;6.72;;;;;;;26.47;100.00;102403.84;5133026;27;20057;-76
2023/09/07 06:35:38;;;;;;;13.10;7.18;;;;;;;26.77;100.00;102364.78;5132485;27;20031;-76
2023/09/07 06:38:04;;;;;;;10.82;5.63;;;;;;;26.18;100.00;102292.44;5133935;27;20031;-75
2023/09/07 06:40:29;;;;;;;11.90;6.28;;;;;;;26.54;100.00;101770.91;5132314;27;20027;-75
2023/09/07 06:42:56;;;;;;;7.68;5.70;;;;;;;27.01;100.00;101671.13;5133235;27;20433;-75
2023/09/07 06:45:23;;;;;;;10.45;4.90;;;;;;;26.72;100.00;101520.88;5133767;27;20031;-75
2023/09/07 06:47:50;;;;;;;7.00;4.60;;;;;;;27.17;100.00;101557.63;5132401;27;20122;-75
2023/09/07 06:50:16;;;;;;;9.50;4.53;;;;;;;26.91;100.00;101453.34;5133435;27;20492;-76
2023/09/07 06:52:41;;;;;;;7.18;4.32;;;;;;;27.20;100.00;101455.50;5131937;27;20023;-75
2023/09/07 06:55:06;;;;;;;7.82;4.25;;;;;;;27.32;100.00;101428.47;5131455;27;20031;-76
2023/09/07 06:57:33;;;;;;;6.75;3.78;;;;;;;27.23;100.00;101400.41;5133738;27;20059;-74
2023/09/07 06:59:59;;;;;;;8.43;4.22;;;;;;;27.27;100.00;101391.41;5133427;27;20050;-75
2023/09/07 07:02:24;;;;;;;8.15;3.97;;;;;;;27.72;100.00;101342.66;5135496;27;20127;-75
2023/09/07 07:04:50;;;;;;;8.82;4.13;;;;;;;27.52;100.00;101295.47;5154183;27;20041;-75
2023/09/07 07:07:16;;;;;;;8.35;4.25;;;;;;;27.33;100.00;101283.00;5161972;27;20033;-74
2023/09/07 07:09:42;;;;;;;4.82;4.30;;;;;;;27.51;100.00;101211.03;5157684;27;20027;-74
2023/09/07 07:12:07;;;;;;;10.50;4.15;;;;;;;28.26;100.00;101262.47;5140495;27;20469;-74
2023/09/07 07:14:33;;;;;;;7.97;4.15;;;;;;;28.36;100.00;101212.81;5153404;27;20023;-75
2023/09/07 07:16:58;;;;;;;5.60;4.38;;;;;;;27.82;100.00;101222.47;5153769;27;20091;-75
2023/09/07 07:19:24;;;;;;;6.75;4.07;;;;;;;27.60;100.00;101207.66;5153908;27;20026;-75
2023/09/07 07:21:49;;;;;;;9.30;4.50;;;;;;;27.29;100.00;101156.13;5153425;27;20480;-75
2023/09/07 07:24:15;;;;;;;5.82;4.75;;;;;;;28.01;100.00;101218.28;5134487;27;20034;-75
2023/09/07 07:26:41;;;;;;;7.70;4.22;;;;;;;28.67;100.00;101213.72;5153856;27;20051;-75
2023/09/07 07:29:07;;;;;;;8.57;4.60;;;;;;;28.18;100.00;101224.78;5129302;27;20032;-74
2023/09/07 07:31:32;;;;;;;6.43;4.38;;;;;;;28.27;100.00;101226.63;5094156;28;20023;-75
2023/09/07 07:33:58;;;;;;;11.13;4.70;;;;;;;28.27;100.00;101171.69;5093419;28;20157;-74
2023/09/07 07:36:23;;;;;;;7.38;5.07;;;;;;;28.43;100.00;101220.97;5111641;28;20506;-75
2023/09/07 07:38:49;;;;;;;8.20;4.93;;;;;;;28.27;100.00;101230.09;5093645;28;20028;-75
2023/09/07 07:41:15;;;;;;;9.35;5.53;;;;;;;28.57;100.00;101226.75;5093115;28;20026;-75
2023/09/07 07:43:40;;;;;;;7.18;5.45;;;;;;;29.13;100.00;101224.59;5112214;28;20023;-75
2023/09/07 07:46:07;;;;;;;10.20;5.63;;;;;;;29.08;100.00;101187.47;5112034;28;20036;-75
2023/09/07 07:48:35;;;;;;;12.25;7.05;;;;;;;28.98;100.00;101179.56;5093494;28;20031;-75
2023/09/07 07:51:05;;;;;;;10.43;5.85;;;;;;;28.28;100.00;101189.06;5112048;28;20485;-75
2023/09/07 07:53:31;;;;;;;7.63;6.32;;;;;;;28.78;100.00;101182.25;5110621;28;20023;-75
2023/09/07 07:55:57;;;;;;;10.13;5.30;;;;;;;28.80;100.00;101232.72;5111870;28;20108;-75
2023/09/07 07:58:22;;;;;;;8.75;5.22;;;;;;;28.66;100.00;101189.31;5093208;28;20115;-75
2023/09/07 08:00:48;;;;;;;9.75;5.70;;;;;;;29.76;100.00;101205.13;5093465;28;20039;-75
2023/09/07 08:03:17;;;;;;;8.20;5.38;;;;;;;29.25;100.00;101170.34;5090088;28;20056;-75
2023/09/07 08:05:42;;;;;;;6.50;5.57;;;;;;;29.44;100.00;101222.81;5091546;28;20458;-74
2023/09/07 08:08:08;;;;;;;9.00;5.63;;;;;;;29.50;100.00;101233.59;5089611;28;20028;-76
2023/09/07 08:10:36;;;;;;;8.07;6.32;;;;;;;29.11;100.00;101195.09;5091315;28;20043;-76
2023/09/07 08:13:02;;;;;;;10.10;7.13;;;;;;;29.17;100.00;101149.22;5091604;28;20030;-76
2023/09/07 08:15:28;;;;;;;11.75;6.80;;;;;;;29.10;100.00;101190.78;5091425;28;20115;-75
2023/09/07 08:17:54;;;;;;;6.72;5.70;;;;;;;28.81;100.00;101188.06;5091044;28;20118;-76
2023/09/07 08:20:20;;;;;;;10.57;5.70;;;;;;;29.07;100.00;101236.44;5083777;28;20108;-76
2023/09/07 08:22:46;;;;;;;9.40;5.22;;;;;;;29.30;100.00;101189.94;5091249;28;20114;-76
2023/09/07 08:25:15;;;;;;;9.32;5.35;;;;;;;29.25;100.00;101223.59;5091597;28;20095;-75
2023/09/07 08:27:44;;;;;;;13.10;5.80;;;;;;;29.83;100.00;101214.94;5086334;28;20028;-75
2023/09/07 08:30:19;;;;;;;8.30;5.43;;;;;;;30.19;100.00;101216.06;5089650;28;20085;-75
2023/09/07 08:32:51;;;;;;;8.25;6.00;;;;;;;29.37;100.00;101226.94;5083842;28;20028;-75
2023/09/07 08:35:17;;;;;;;9.13;5.75;;;;;;;30.23;100.00;101219.25;5091730;28;20032;-75
2023/09/07 08:37:42;;;;;;;10.55;5.78;;;;;;;30.14;100.00;101218.28;5089954;28;20086;-72
2023/09/07 08:40:08;;;;;;;8.10;5.60;;;;;;;30.54;100.00;101219.00;5094615;28;20048;-74
2023/09/07 08:42:37;;;;;;;8.93;5.55;;;;;;;29.85;100.00;101213.00;5094572;28;20118;-75
2023/09/07 08:45:06;;;;;;;10.45;5.75;;;;;;;29.57;100.00;101223.41;5110061;28;20020;-75
2023/09/07 08:47:34;;;;;;;9.48;5.70;;;;;;;29.31;100.00;101225.69;5095437;28;20028;-78
2023/09/07 08:50:01;;;;;;;10.77;5.72;;;;;;;30.18;100.00;101167.16;5092681;28;20122;-76
2023/09/07 08:52:26;;;;;;;14.68;8.63;;;;;;;29.95;100.00;101166.63;5095249;28;20032;-78
2023/09/07 08:54:53;;;;;;;8.43;5.65;;;;;;;29.97;100.00;101231.25;5108456;28;20502;-77
2023/09/07 08:57:18;;;;;;;8.60;6.45;;;;;;;30.02;100.00;101153.78;5095124;28;20478;-75
2023/09/07 08:59:44;;;;;;;8.57;6.50;;;;;;;30.90;100.00;101213.97;5090344;28;20032;-76
2023/09/07 09:02:11;;;;;;;6.28;5.15;;;;;;;30.27;100.00;101173.38;5093630;28;20048;-75
2023/09/07 09:04:37;;;;;;;11.95;6.35;;;;;;;30.41;100.00;101160.66;5089544;28;20040;-76
2023/09/07 09:07:04;;;;;;;9.80;5.15;;;;;;;29.65;100.00;101226.22;5094388;28;20036;-75
2023/09/07 09:09:29;;;;;;;7.57;5.63;;;;;;;29.49;100.00;101157.72;5076198;28;20035;-74
2023/09/07 09:11:55;;;;;;;6.68;4.93;;;;;;;29.36;100.00;101126.50;5094219;28;20032;-75
2023/09/07 09:14:23;;;;;;;7.60;5.07;;;;;;;30.02;100.00;101205.44;5094066;28;20486;-74
2023/09/07 09:16:53;;;;;;;9.93;5.00;;;;;;;30.53;100.00;101164.78;5094238;28;20032;-75
2023/09/07 09:19:18;;;;;;;10.48;4.97;;;;;;;30.11;100.00;101200.19;5094110;28;20029;-74
2023/09/07 09:21:47;;;;;;;7.65;4.97;;;;;;;30.26;100.00;101169.94;5093379;28;20084;-74
2023/09/07 09:24:12;;;;;;;10.88;5.28;;;;;;;29.50;100.00;101133.13;5092819;28;20701;-71
2023/09/07 09:26:41;;;;;;;8.18;5.13;;;;;;;30.45;100.00;101184.84;5096015;28;20071;-74
2023/09/07 09:29:06;;;;;;;7.60;5.07;;;;;;;30.50;100.00;101175.59;5096162;28;20031;-74
2023/09/07 09:31:31;;;;;;;11.65;4.82;;;;;;;30.24;100.00;101190.25;5115446;28;20037;-82
2023/09/07 09:33:58;;;;;;;10.57;6.00;;;;;;;30.68;100.00;101159.94;5100282;28;20047;-75
2023/09/07 09:36:23;;;;;;;5.25;4.68;;;;;;;30.27;100.00;101173.38;5117589;28;20019;-75
2023/09/07 09:38:53;;;;;;;10.70;5.10;;;;;;;29.95;100.00;101110.69;5095734;28;20055;-78
2023/09/07 09:41:20;;;;;;;10.32;5.05;;;;;;;30.42;100.00;101162.34;5114803;28;20172;-74
2023/09/07 09:43:51;;;;;;;9.27;5.40;;;;;;;30.78;100.00;101151.03;5115173;28;20038;-74
2023/09/07 09:46:17;;;;;;;7.38;4.65;;;;;;;30.27;100.00;101158.44;5095669;28;20387;-73
2023/09/07 09:48:43;;;;;;;10.02;5.13;;;;;;;30.77;100.00;101148.53;5112117;28;20031;-75
2023/09/07 09:51:11;;;;;;;11.35;5.65;;;;;;;30.93;100.00;101138.28;5114011;28;20039;-73
2023/09/07 09:53:38;;;;;;;8.85;5.75;;;;;;;30.57;100.00;101153.03;5112162;28;20028;-74
2023/09/07 09:56:03;;;;;;;8.02;5.15;;;;;;;30.09;100.00;101133.88;5113436;28;20034;-77
2023/09/07 09:58:29;;;;;;;8.60;4.97;;;;;;;30.67;100.00;101087.34;5094654;28;20509;-74
2023/09/07 10:00:58;;;;;;;10.10;5.32;;;;;;;31.14;100.00;101083.66;5112785;28;20036;-75
2023/09/07 10:03:32;;;;;;;10.80;4.68;;;;;;;30.58;100.00;101144.16;5096971;28;20054;-75
2023/09/07 10:06:35;;;;;;;5.57;4.60;;;;;;;30.22;100.00;101154.59;5113736;27;20081;-76
2023/09/07 10:09:10;;;;;;;7.07;5.15;;;;;;;31.11;100.00;101139.16;5133344;27;20027;-75
2023/09/07 10:11:37;;;;;;;12.32;4.88;;;;;;;31.17;100.00;101086.00;5133252;27;20161;-75
2023/09/07 10:14:04;;;;;;;7.65;4.82;;;;;;;30.64;100.00;101148.84;5133681;27;20031;-76
2023/09/07 10:16:55;;;;;;;8.13;4.90;;;;;;;30.93;100.00;101138.28;5133953;27;20091;-75
2023/09/07 10:19:26;;;;;;;14.48;5.38;;;;;;;30.66;100.00;101083.88;5115517;27;20038;-71
2023/09/07 10:21:56;;;;;;;8.00;5.07;;;;;;;30.43;100.00;101072.06;5133913;27;20034;-75
2023/09/07 10:24:36;;;;;;;7.40;4.85;;;;;;;30.90;100.00;101138.59;5116051;27;20019;-76
2023/09/07 10:27:06;;;;;;;9.55;5.22;;;;;;;31.07;100.00;101132.53;5149262;27;20031;-76
2023/09/07 10:29:43;;;;;;;8.93;4.77;;;;;;;30.49;100.00;101081.19;5134106;27;20065;-78
2023/09/07 10:32:12;;;;;;;7.55;4.82;;;;;;;31.16;100.00;101058.03;5115461;27;20359;-76
2023/09/07 10:34:42;;;;;;;7.40;4.63;;;;;;;30.96;100.00;101058.31;5115593;27;20126;-75
2023/09/07 10:37:10;;;;;;;6.63;4.97;;;;;;;32.01;100.00;101060.19;5133629;27;20019;-74
2023/09/07 10:39:35;;;;;;;8.63;4.78;;;;;;;31.27;100.00;101080.69;5115412;27;20542;-78
2023/09/07 10:42:00;;;;;;;7.93;5.10;;;;;;;30.63;100.00;101141.13;5133187;27;20023;-75
2023/09/07 10:44:29;;;;;;;6.55;4.50;;;;;;;31.11;100.00;101109.41;5133348;27;20062;-76
2023/09/07 10:46:56;;;;;;;5.28;4.78;;;;;;;30.85;100.00;101074.28;5115345;27;20059;-75
2023/09/07 10:49:22;;;;;;;8.35;4.70;;;;;;;31.41;100.00;101061.78;5133771;27;20038;-78
2023/09/07 10:51:48;;;;;;;6.40;4.75;;;;;;;31.16;100.00;101060.66;5133493;27;20503;-75
2023/09/07 10:54:15;;;;;;;10.50;5.10;;;;;;;31.78;100.00;101049.28;5114904;27;20127;-76
2023/09/07 10:56:40;;;;;;;11.32;5.25;;;;;;;31.19;100.00;101120.03;5115072;27;20031;-74
2023/09/07 10:59:06;;;;;;;8.25;5.15;;;;;;;31.63;100.00;101094.69;5132371;27;20092;-75
2023/09/07 11:01:31;;;;;;;8.93;4.57;;;;;;;31.41;100.00;101106.50;5133274;27;20086;-75
2023/09/07 11:03:57;;;;;;;6.82;4.55;;;;;;;30.95;100.00;101125.81;5132785;27;20100;-75
2023/09/07 11:06:23;;;;;;;6.80;5.05;;;;;;;31.14;100.00;101051.31;5132872;27;20100;-75